createdAt,value
2022-08-11T00:02:29.469Z,3.25
2022-08-11T00:04:58.659Z,3.38
2022-08-11T00:07:27.946Z,3.10
2022-08-11T00:09:57.127Z,2.95
2022-08-11T00:12:25.748Z,4.13
2022-08-11T00:14:59.876Z,3.40
2022-08-11T00:17:30.815Z,3.63
2022-08-11T00:20:14.883Z,3.47
2022-08-11T00:22:46.413Z,3.35
2022-08-11T00:25:18.182Z,3.67
2022-08-11T00:27:48.474Z,3.33
2022-08-11T00:30:18.399Z,3.65
2022-08-11T00:32:55.209Z,4.05
2022-08-11T00:35:52.127Z,3.53
2022-08-11T00:38:16.642Z,4.50
2022-08-11T00:40:48.405Z,3.60
2022-08-11T00:43:22.195Z,3.22
2022-08-11T00:46:12.210Z,3.60
2022-08-11T00:48:46.775Z,4.00
2022-08-11T00:51:24.672Z,3.88
2022-08-11T00:54:01.921Z,3.42
2022-08-11T00:56:58.194Z,3.50
2022-08-11T00:59:58.831Z,3.35
2022-08-11T01:02:49.526Z,3.60
2022-08-11T01:05:51.593Z,3.15
2022-08-11T01:08:48.140Z,3.08
2022-08-11T01:11:27.077Z,3.15
2022-08-11T01:14:37.762Z,3.10
2022-08-11T01:20:45.417Z,2.97
2022-08-11T01:23:12.686Z,3.03
2022-08-11T01:26:28.234Z,3.25
2022-08-11T01:32:06.439Z,3.30
2022-08-11T01:35:19.180Z,3.47
2022-08-11T01:38:22.200Z,3.22
2022-08-11T01:41:48.772Z,3.53
2022-08-11T01:44:41.605Z,3.20
2022-08-11T01:47:52.601Z,3.67
2022-08-11T01:50:38.548Z,3.25
2022-08-11T01:53:14.202Z,3.10
2022-08-11T01:55:55.171Z,3.28
2022-08-11T01:58:43.571Z,3.30
2022-08-11T02:01:25.573Z,3.38
2022-08-11T02:03:58.338Z,3.47
2022-08-11T02:06:46.943Z,3.80
2022-08-11T02:09:21.920Z,3.58
2022-08-11T02:11:50.779Z,3.55
2022-08-11T02:14:25.971Z,3.40
2022-08-11T02:17:01.723Z,3.40
2022-08-11T02:19:57.318Z,3.40
2022-08-11T02:22:50.021Z,3.13
2022-08-11T02:25:25.767Z,3.63
2022-08-11T02:28:00.789Z,3.42
2022-08-11T02:30:33.741Z,3.33
2022-08-11T02:33:24.885Z,3.45
2022-08-11T02:36:00.261Z,3.60
2022-08-11T02:38:33.733Z,3.33
2022-08-11T02:41:30.504Z,4.00
2022-08-11T02:44:25.682Z,3.50
2022-08-11T02:47:04.121Z,3.80
2022-08-11T02:50:02.507Z,3.80
2022-08-11T02:52:45.478Z,3.70
2022-08-11T02:55:48.924Z,3.72
2022-08-11T02:58:15.959Z,3.92
2022-08-11T03:00:48.769Z,3.80
2022-08-11T03:03:22.258Z,3.63
2022-08-11T03:05:57.818Z,3.78
2022-08-11T03:08:42.199Z,3.67
2022-08-11T03:11:34.023Z,3.92
2022-08-11T03:14:31.647Z,4.13
2022-08-11T03:17:05.754Z,3.67
2022-08-11T03:19:46.857Z,4.40
2022-08-11T03:22:22.095Z,4.28
2022-08-11T03:25:02.542Z,4.13
2022-08-11T03:27:40.686Z,4.45
2022-08-11T03:30:14.104Z,4.28
2022-08-11T03:33:11.339Z,4.97
2022-08-11T03:35:43.138Z,5.32
2022-08-11T03:38:14.353Z,5.10
2022-08-11T03:42:01.319Z,4.70
2022-08-11T03:44:08.036Z,4.85
2022-08-11T03:46:45.336Z,4.95
2022-08-11T03:49:26.851Z,4.65
2022-08-11T03:51:58.486Z,5.10
2022-08-11T03:54:32.964Z,5.07
2022-08-11T03:57:43.548Z,4.93
2022-08-11T04:03:21.176Z,4.55
2022-08-11T04:06:15.042Z,5.18
2022-08-11T04:09:15.108Z,4.60
2022-08-11T04:12:06.550Z,4.28
2022-08-11T04:15:02.080Z,4.65
2022-08-11T04:17:52.532Z,4.43
2022-08-11T04:20:33.699Z,4.22
2022-08-11T04:24:36.797Z,4.55
2022-08-11T04:27:37.195Z,4.30
2022-08-11T04:30:12.187Z,4.20
2022-08-11T04:33:17.807Z,4.53
2022-08-11T04:35:55.088Z,4.55
2022-08-11T04:38:54.550Z,4.85
2022-08-11T04:42:01.095Z,5.30
2022-08-11T04:45:11.962Z,4.90
2022-08-11T04:48:17.405Z,4.97
2022-08-11T04:51:17.784Z,4.57
2022-08-11T04:54:10.933Z,5.05
2022-08-11T04:56:58.959Z,5.47
2022-08-11T05:00:10.158Z,4.90
2022-08-11T05:03:15.750Z,5.10
2022-08-11T05:06:09.021Z,4.93
2022-08-11T05:09:02.446Z,5.00
2022-08-11T05:12:03.674Z,5.03
2022-08-11T05:14:52.432Z,4.75
2022-08-11T05:17:56.682Z,5.40
2022-08-11T05:20:44.637Z,5.18
2022-08-11T05:23:31.861Z,5.40
2022-08-11T05:26:46.877Z,5.45
2022-08-11T05:29:46.435Z,5.13
2022-08-11T05:32:34.558Z,5.70
2022-08-11T05:35:05.222Z,5.28
2022-08-11T05:37:38.112Z,5.20
2022-08-11T05:40:30.713Z,4.40
2022-08-11T05:43:19.210Z,3.70
2022-08-11T05:46:15.036Z,4.03
2022-08-11T05:49:01.996Z,3.83
2022-08-11T05:51:55.311Z,3.85
2022-08-11T05:54:42.318Z,4.40
2022-08-11T05:57:48.807Z,4.00
2022-08-11T06:00:10.391Z,4.30
2022-08-11T06:05:10.570Z,4.57
2022-08-11T06:07:49.220Z,4.63
2022-08-11T06:10:31.023Z,4.47
2022-08-11T06:13:02.060Z,4.70
2022-08-11T06:15:32.874Z,4.72
2022-08-11T06:18:02.930Z,4.90
2022-08-11T06:20:36.567Z,4.47
2022-08-11T06:23:07.399Z,4.57
2022-08-11T06:25:37.337Z,4.55
2022-08-11T06:28:08.537Z,4.80
2022-08-11T06:30:40.724Z,4.28
2022-08-11T06:33:11.106Z,4.00
2022-08-11T06:38:11.993Z,4.43
2022-08-11T06:41:08.314Z,4.18
2022-08-11T06:43:55.374Z,4.30
2022-08-11T06:46:28.636Z,3.83
2022-08-11T06:48:57.176Z,3.70
2022-08-11T06:51:24.811Z,3.83
2022-08-11T06:54:04.575Z,4.00
2022-08-11T06:57:18.635Z,4.00
2022-08-11T07:00:02.428Z,4.50
2022-08-11T07:02:34.554Z,4.30
2022-08-11T07:05:08.354Z,3.60
2022-08-11T07:08:35.787Z,3.67
2022-08-11T07:11:41.430Z,3.88
2022-08-11T07:14:27.396Z,3.63
2022-08-11T07:16:57.585Z,3.95
2022-08-11T07:19:47.022Z,3.33
2022-08-11T07:22:33.766Z,3.60
2022-08-11T07:25:21.246Z,4.00
2022-08-11T07:28:10.606Z,3.60
2022-08-11T07:30:41.881Z,3.85
2022-08-11T07:34:05.731Z,3.97
2022-08-11T07:36:05.135Z,3.80
2022-08-11T07:38:47.428Z,3.80
2022-08-11T07:41:17.733Z,3.53
2022-08-11T07:43:49.196Z,3.38
2022-08-11T07:46:36.056Z,3.70
2022-08-11T07:49:26.176Z,3.45
2022-08-11T07:52:12.638Z,3.83
2022-08-11T07:54:41.991Z,3.58
2022-08-11T07:58:14.667Z,3.30
2022-08-11T08:00:37.382Z,3.33
2022-08-11T08:03:24.496Z,3.47
2022-08-11T08:06:15.362Z,3.60
2022-08-11T08:09:17.573Z,3.75
2022-08-11T08:12:03.861Z,3.22
2022-08-11T08:14:50.618Z,3.50
2022-08-11T08:17:37.274Z,3.30
2022-08-11T08:20:07.888Z,3.22
2022-08-11T08:22:39.748Z,3.03
2022-08-11T08:25:10.602Z,3.20
2022-08-11T08:27:39.453Z,3.33
2022-08-11T08:30:26.291Z,3.40
2022-08-11T08:32:57.670Z,3.55
2022-08-11T08:35:30.654Z,3.20
2022-08-11T08:38:02.305Z,3.20
2022-08-11T08:40:31.031Z,3.05
2022-08-11T08:43:05.118Z,3.38
2022-08-11T08:45:37.735Z,3.60
2022-08-11T08:48:10.333Z,3.42
2022-08-11T08:51:01.785Z,3.42
2022-08-11T08:53:35.245Z,3.92
2022-08-11T08:56:04.461Z,3.40
2022-08-11T08:58:34.721Z,3.03
2022-08-11T09:04:07.108Z,2.95
2022-08-11T09:06:20.651Z,3.10
2022-08-11T09:08:53.652Z,3.40
2022-08-11T09:11:41.581Z,3.10
2022-08-11T09:14:14.942Z,3.17
2022-08-11T09:16:44.290Z,2.92
2022-08-11T09:19:17.675Z,3.10
2022-08-11T09:22:08.386Z,2.90
2022-08-11T09:24:56.390Z,2.92
2022-08-11T09:27:25.299Z,2.90
2022-08-11T09:29:54.205Z,3.15
2022-08-11T09:32:23.220Z,3.10
2022-08-11T09:34:54.089Z,2.92
2022-08-11T09:37:54.069Z,2.90
2022-08-11T09:40:32.375Z,2.80
2022-08-11T09:43:21.663Z,2.65
2022-08-11T09:45:51.898Z,2.80
2022-08-11T09:48:20.845Z,2.60
2022-08-11T09:50:52.631Z,2.80
2022-08-11T09:53:36.642Z,2.88
2022-08-11T09:56:30.128Z,2.75
2022-08-11T09:58:59.506Z,2.90
2022-08-11T10:01:31.705Z,2.75
2022-08-11T10:04:02.895Z,2.60
2022-08-11T10:06:54.502Z,2.80
2022-08-11T10:09:25.675Z,2.33
2022-08-11T10:14:45.270Z,2.75
2022-08-11T10:17:14.930Z,2.78
2022-08-11T10:20:01.958Z,3.13
2022-08-11T10:22:52.936Z,3.35
2022-08-11T10:25:39.315Z,2.40
2022-08-11T10:28:32.973Z,2.63
2022-08-11T10:31:16.973Z,2.50
2022-08-11T10:34:01.915Z,2.50
2022-08-11T10:36:31.820Z,2.90
2022-08-11T10:39:01.710Z,2.50
2022-08-11T10:42:06.804Z,2.67
2022-08-11T10:44:40.141Z,2.35
2022-08-11T10:47:26.687Z,2.78
2022-08-11T10:50:09.626Z,2.75
2022-08-11T10:52:56.408Z,2.60
2022-08-11T10:55:42.912Z,2.55
2022-08-11T10:58:29.275Z,2.22
2022-08-11T11:01:00.695Z,2.40
2022-08-11T11:03:32.174Z,2.70
2022-08-11T11:06:28.728Z,2.63
2022-08-11T11:09:03.762Z,2.35
2022-08-11T11:11:54.092Z,2.78
2022-08-11T11:14:46.161Z,2.50
2022-08-11T11:17:44.190Z,2.70
2022-08-11T11:20:35.806Z,2.60
2022-08-11T11:23:06.429Z,2.60
2022-08-11T11:25:40.380Z,2.30
2022-08-11T11:28:34.617Z,2.70
2022-08-11T11:31:15.784Z,2.92
2022-08-11T11:34:12.186Z,2.65
2022-08-11T11:36:47.059Z,2.60
2022-08-11T11:39:19.309Z,2.50
2022-08-11T11:41:48.453Z,2.33
2022-08-11T11:44:17.103Z,2.63
2022-08-11T11:46:46.673Z,2.70
2022-08-11T11:49:18.606Z,2.35
2022-08-11T11:51:50.279Z,2.90
2022-08-11T11:54:19.076Z,2.88
2022-08-11T11:56:47.440Z,2.50
2022-08-11T11:59:34.005Z,2.60
2022-08-11T12:02:11.841Z,2.70
2022-08-11T12:04:45.188Z,2.33
2022-08-11T12:07:30.998Z,2.25
2022-08-11T12:09:59.706Z,2.60
2022-08-11T12:12:45.492Z,2.80
2022-08-11T12:15:13.935Z,2.45
2022-08-11T12:17:42.305Z,2.63
2022-08-11T12:20:31.954Z,2.58
2022-08-11T12:23:16.507Z,2.70
2022-08-11T12:26:26.431Z,2.33
2022-08-11T12:28:51.895Z,2.42
2022-08-11T12:31:25.982Z,2.30
2022-08-11T12:33:56.154Z,2.53
2022-08-11T12:38:55.090Z,2.22
2022-08-11T12:41:42.067Z,2.20
2022-08-11T12:44:28.620Z,2.10
2022-08-11T12:46:58.998Z,2.20
2022-08-11T12:49:47.366Z,2.20
2022-08-11T12:52:21.658Z,2.45
2022-08-11T12:54:58.954Z,2.28
2022-08-11T12:57:49.655Z,2.60
2022-08-11T13:00:36.446Z,2.17
2022-08-11T13:03:24.519Z,2.13
2022-08-11T13:05:55.713Z,2.35
2022-08-11T13:08:26.677Z,2.40
2022-08-11T13:11:15.124Z,2.50
2022-08-11T13:13:54.066Z,2.15
2022-08-11T13:16:27.789Z,2.50
2022-08-11T13:18:56.904Z,2.03
2022-08-11T13:21:25.519Z,2.20
2022-08-11T13:24:01.691Z,2.53
2022-08-11T13:26:46.645Z,1.95
2022-08-11T13:29:20.625Z,2.30
2022-08-11T13:31:49.600Z,2.08
2022-08-11T13:34:18.485Z,2.10
2022-08-11T13:36:50.053Z,1.92
2022-08-11T13:41:49.671Z,2.15
2022-08-11T13:44:24.734Z,2.13
2022-08-11T13:46:55.278Z,2.30
2022-08-11T13:49:24.056Z,2.10
2022-08-11T13:51:52.844Z,2.30
2022-08-11T13:54:24.662Z,2.10
2022-08-11T13:56:55.349Z,2.63
2022-08-11T13:59:29.869Z,2.30
2022-08-11T14:02:22.052Z,2.17
2022-08-11T14:04:55.445Z,1.90
2022-08-11T14:07:25.884Z,1.80
2022-08-11T14:09:58.958Z,2.20
2022-08-11T14:12:46.663Z,2.30
2022-08-11T14:15:19.993Z,2.30
2022-08-11T14:17:52.254Z,2.03
2022-08-11T14:20:38.296Z,2.20
2022-08-11T14:23:11.021Z,2.20
2022-08-11T14:26:03.759Z,2.20
2022-08-11T14:28:40.298Z,1.85
2022-08-11T14:31:14.711Z,2.20
2022-08-11T14:34:00.409Z,2.20
2022-08-11T14:36:34.022Z,2.63
2022-08-11T14:39:05.425Z,2.25
2022-08-11T14:42:10.151Z,2.35
2022-08-11T14:45:00.889Z,2.42
2022-08-11T14:47:29.470Z,2.10
2022-08-11T14:50:10.253Z,2.10
2022-08-11T14:52:45.743Z,2.17
2022-08-11T14:55:32.068Z,2.10
2022-08-11T14:58:02.448Z,2.03
2022-08-11T15:00:31.572Z,2.13
2022-08-11T15:03:12.080Z,2.42
2022-08-11T15:05:52.333Z,2.53
2022-08-11T15:08:46.642Z,2.20
2022-08-11T15:11:34.193Z,2.15
2022-08-11T15:14:06.494Z,2.30
2022-08-11T15:16:52.793Z,2.40
2022-08-11T15:19:22.099Z,2.08
2022-08-11T15:22:08.123Z,2.15
2022-08-11T15:24:37.363Z,2.05
2022-08-11T15:27:24.792Z,2.20
2022-08-11T15:30:20.935Z,2.20
2022-08-11T15:33:20.618Z,2.33
2022-08-11T15:36:06.495Z,2.55
2022-08-11T15:38:37.082Z,2.35
2022-08-11T15:41:23.936Z,2.08
2022-08-11T15:44:12.039Z,2.20
2022-08-11T15:46:43.850Z,2.35
2022-08-11T15:49:13.755Z,2.25
2022-08-11T15:51:54.399Z,1.95
2022-08-11T15:54:27.216Z,2.45
2022-08-11T15:56:57.478Z,2.10
2022-08-11T15:59:44.348Z,2.20
2022-08-11T16:02:34.041Z,2.20
2022-08-11T16:05:05.288Z,2.10
2022-08-11T16:07:36.932Z,2.00
2022-08-11T16:10:14.813Z,1.80
2022-08-11T16:13:18.132Z,1.98
2022-08-11T16:16:06.518Z,2.00
2022-08-11T16:18:43.018Z,2.00
2022-08-11T16:21:34.219Z,2.42
2022-08-11T16:24:06.139Z,1.98
2022-08-11T16:27:10.281Z,1.92
2022-08-11T16:29:28.160Z,1.73
2022-08-11T16:32:15.040Z,1.50
2022-08-11T16:35:03.586Z,1.75
2022-08-11T16:37:52.102Z,1.90
2022-08-11T16:40:22.688Z,2.20
2022-08-11T16:43:11.561Z,1.92
2022-08-11T16:45:58.882Z,1.90
2022-08-11T16:48:34.961Z,2.03
2022-08-11T16:51:08.295Z,2.15
2022-08-11T16:53:54.854Z,1.70
2022-08-11T16:56:33.933Z,1.50
2022-08-11T16:59:17.285Z,1.58
2022-08-11T17:01:53.011Z,2.20
2022-08-11T17:04:46.208Z,1.75
2022-08-11T17:07:41.690Z,1.98
2022-08-11T17:10:51.555Z,1.70
2022-08-11T17:13:26.851Z,1.70
2022-08-11T17:16:12.209Z,1.77
2022-08-11T17:18:51.624Z,1.40
2022-08-11T17:21:21.829Z,1.90
2022-08-11T17:23:55.069Z,1.90
2022-08-11T17:26:28.050Z,1.90
2022-08-11T17:29:00.573Z,1.85
2022-08-11T17:31:47.660Z,1.95
2022-08-11T17:34:34.086Z,1.60
2022-08-11T17:37:02.882Z,1.80
2022-08-11T17:39:33.036Z,1.98
2022-08-11T17:42:19.682Z,1.70
2022-08-11T17:45:06.737Z,2.08
2022-08-11T17:47:53.063Z,1.70
2022-08-11T17:50:22.452Z,1.98
2022-08-11T17:53:08.971Z,1.75
2022-08-11T17:55:58.197Z,1.83
2022-08-11T17:58:44.662Z,2.90
2022-08-11T18:01:13.808Z,1.98
2022-08-11T18:03:41.827Z,1.70
2022-08-11T18:06:22.520Z,1.95
2022-08-11T18:09:23.934Z,1.80
2022-08-11T18:12:13.150Z,1.83
2022-08-11T18:15:01.081Z,1.95
2022-08-11T18:17:47.874Z,1.85
2022-08-11T18:20:33.796Z,2.50
2022-08-11T18:23:46.546Z,2.08
2022-08-11T18:26:28.816Z,2.30
2022-08-11T18:29:16.358Z,2.30
2022-08-11T18:32:07.037Z,2.25
2022-08-11T18:34:56.567Z,2.25
2022-08-11T18:37:44.712Z,1.93
2022-08-11T18:40:35.158Z,2.50
2022-08-11T18:43:27.183Z,2.95
2022-08-11T18:46:18.489Z,2.80
2022-08-11T18:49:10.647Z,3.00
2022-08-11T18:52:00.209Z,2.70
2022-08-11T18:54:48.861Z,2.20
2022-08-11T18:57:49.887Z,2.00
2022-08-11T19:00:41.492Z,2.20
2022-08-11T19:03:30.377Z,2.20
2022-08-11T19:06:38.417Z,2.20
2022-08-11T19:09:27.427Z,2.10
2022-08-11T19:12:13.945Z,2.22
2022-08-11T19:15:00.434Z,2.00
2022-08-11T19:17:46.887Z,2.40
2022-08-11T19:20:36.815Z,2.20
2022-08-11T19:23:25.151Z,2.00
2022-08-11T19:26:12.020Z,2.20
2022-08-11T19:28:58.660Z,2.78
2022-08-11T19:31:45.810Z,2.65
2022-08-11T19:34:32.711Z,2.63
2022-08-11T19:37:24.427Z,2.60
2022-08-11T19:40:11.910Z,2.40
2022-08-11T19:42:59.327Z,2.10
2022-08-11T19:45:50.352Z,2.28
2022-08-11T19:48:39.284Z,2.40
2022-08-11T19:51:25.340Z,2.55
2022-08-11T19:54:13.148Z,2.00
2022-08-11T19:57:00.530Z,2.03
2022-08-11T19:59:47.203Z,2.10
2022-08-11T20:02:33.134Z,1.90
2022-08-11T20:05:19.004Z,2.80
2022-08-11T20:08:04.976Z,2.97
2022-08-11T20:10:53.678Z,2.75
2022-08-11T20:13:41.683Z,2.50
2022-08-11T20:16:30.152Z,2.30
2022-08-11T20:19:16.687Z,2.42
2022-08-11T20:22:07.916Z,2.70
2022-08-11T20:24:55.248Z,2.20
2022-08-11T20:27:44.131Z,2.55
2022-08-11T20:30:31.370Z,2.50
2022-08-11T20:33:17.518Z,1.98
2022-08-11T20:36:04.662Z,2.17
2022-08-11T20:38:51.738Z,2.10
2022-08-11T20:41:58.967Z,2.05
2022-08-11T20:44:45.994Z,2.20
2022-08-11T20:47:32.970Z,2.00
2022-08-11T20:50:41.013Z,2.40
2022-08-11T20:53:27.675Z,2.60
2022-08-11T20:56:14.124Z,2.30
2022-08-11T20:59:14.386Z,2.33
2022-08-11T21:02:10.012Z,2.40
2022-08-11T21:04:57.855Z,2.47
2022-08-11T21:07:55.187Z,2.40
2022-08-11T21:10:46.785Z,2.33
2022-08-11T21:13:33.386Z,2.60
2022-08-11T21:16:25.639Z,2.60
2022-08-11T21:19:18.262Z,2.70
2022-08-11T21:22:05.971Z,2.55
2022-08-11T21:24:53.079Z,2.50
2022-08-11T21:27:39.403Z,2.50
2022-08-11T21:30:26.520Z,2.60
2022-08-11T21:33:13.790Z,2.53
2022-08-11T21:36:02.613Z,2.85
2022-08-11T21:38:49.432Z,2.90
2022-08-11T21:41:35.883Z,2.65
2022-08-11T21:44:22.845Z,2.30
2022-08-11T21:47:09.061Z,2.72
2022-08-11T21:49:55.630Z,2.53
2022-08-11T21:52:43.339Z,2.53
2022-08-11T21:55:29.648Z,3.00
2022-08-11T21:58:16.274Z,2.88
2022-08-11T22:01:02.837Z,2.80
2022-08-11T22:03:50.349Z,2.75
2022-08-11T22:06:36.878Z,2.47
2022-08-11T22:09:24.134Z,2.83
2022-08-11T22:12:34.207Z,2.75
2022-08-11T22:15:15.710Z,3.10
2022-08-11T22:18:02.227Z,2.80
2022-08-11T22:20:48.654Z,2.83
2022-08-11T22:23:37.033Z,3.05
2022-08-11T22:26:25.018Z,3.25
2022-08-11T22:29:10.995Z,2.85
2022-08-11T22:31:57.778Z,3.38
2022-08-11T22:34:44.796Z,3.03
2022-08-11T22:37:39.689Z,2.88
2022-08-11T22:40:27.723Z,3.03
2022-08-11T22:43:15.399Z,3.10
2022-08-11T22:46:01.428Z,2.90
2022-08-11T22:48:48.889Z,3.20
2022-08-11T22:51:37.005Z,3.20
2022-08-11T22:54:23.908Z,2.80
2022-08-11T22:57:09.860Z,3.10
2022-08-11T22:59:57.683Z,3.10
2022-08-11T23:02:44.595Z,2.85
2022-08-11T23:05:32.483Z,3.08
2022-08-11T23:08:18.906Z,3.05
2022-08-11T23:11:05.369Z,3.10
2022-08-11T23:13:52.246Z,3.30
2022-08-11T23:16:40.113Z,2.90
2022-08-11T23:19:59.968Z,2.70
2022-08-11T23:22:43.841Z,3.08
2022-08-11T23:25:35.438Z,2.90
2022-08-11T23:28:21.958Z,2.85
2022-08-11T23:31:08.884Z,3.08
2022-08-11T23:33:59.317Z,3.25
2022-08-11T23:36:47.733Z,3.00
2022-08-11T23:39:34.597Z,3.10
2022-08-11T23:42:20.610Z,3.05
2022-08-11T23:45:09.545Z,3.05
2022-08-11T23:47:57.209Z,2.90
2022-08-11T23:50:45.324Z,3.13
2022-08-11T23:53:32.277Z,2.85
2022-08-11T23:56:21.716Z,3.28
2022-08-11T23:59:08.411Z,3.17
